»·PEaware :: FDX427 KPDX-KSEA

FDX427 :: KPDX-KSEA

FLIGHT INFORMATION

Flight Status: Arrived
Operator:
Federal Express
More flights by this operator :: More flights under this callsign
Pilot: Ben F. (13029)
Aircraft: BOEING 757-200
(B752)
More flights by this aircraft type
Origin: KPDX Portland Intl
United States
Destination: KSEA Seattle-Tacoma Intl
United States
More flights between these airports :: More routes between these airports
Route: +COUGA KRIEG HAWKZ7
File this flight plan on PilotEdge
Remarks: PBN / A1B3B4B5C4D4O4 DOF / 190202 REG / N538SB OPR / FDX PER / D RMK / TCAS SIMBRIEF
Altitude:
(Current/Filed)
28,000ft
Speed:
(Current/Filed)
463kts
Departed: 02-Feb-19 03:14 PM
Arrived: 02-Feb-19 03:51 PM
Distance/Time
Traveled:
112nm/0:36
Distance/Time
To Go:
Arrived

Flight Plot

Page will automatically refresh every two minutes.

Flight plan parsing failed; only flown route is shown


Map Options




Map Legend


Flown Route
Filed Route
Departure Airport
Arrival Airport
Navaid (VOR, NDB)
Fix

Horizontal Profiles

Position Reports

Time Latitude Longitude Heading Altitude Ground
Speed
02-Feb-19 14:25 45.581748 -122.610676 44 41ft 0kts
02-Feb-19 14:26 45.581748 -122.610676 44 41ft 0kts
02-Feb-19 14:31 45.581748 -122.610676 44 41ft 0kts
02-Feb-19 14:35 45.581748 -122.610676 44 41ft 0kts
02-Feb-19 14:36 45.581748 -122.610676 44 41ft 0kts
02-Feb-19 14:37 45.581748 -122.610676 44 41ft 0kts
02-Feb-19 14:38 45.581748 -122.610676 44 41ft 0kts
02-Feb-19 14:39 45.581748 -122.610676 44 41ft 0kts
02-Feb-19 14:40 45.581748 -122.610676 44 41ft 0kts
02-Feb-19 14:41 45.581748 -122.610676 44 41ft 0kts
02-Feb-19 14:42 45.581748 -122.610676 44 41ft 0kts
02-Feb-19 14:43 45.581748 -122.610676 44 41ft 0kts
02-Feb-19 14:44 45.581748 -122.610676 44 41ft 0kts
02-Feb-19 14:45 45.581748 -122.610676 44 41ft 0kts
02-Feb-19 14:46 45.581748 -122.610676 44 41ft 0kts
02-Feb-19 14:47 45.581748 -122.610676 44 40ft 0kts
02-Feb-19 14:48 45.581748 -122.610676 44 40ft 0kts
02-Feb-19 14:49 45.581748 -122.610676 44 40ft 0kts
02-Feb-19 14:50 45.581748 -122.610676 44 40ft 0kts
02-Feb-19 14:51 45.581748 -122.610676 44 40ft 0kts
02-Feb-19 14:52 45.581748 -122.610676 44 40ft 0kts
02-Feb-19 14:53 45.581748 -122.610676 44 40ft 0kts
02-Feb-19 14:54 45.581748 -122.610676 44 40ft 0kts
02-Feb-19 14:55 45.581748 -122.610676 44 40ft 0kts
02-Feb-19 14:56 45.581748 -122.610676 44 40ft 0kts
02-Feb-19 14:57 45.581748 -122.610676 44 40ft 0kts
02-Feb-19 14:58 45.581748 -122.610676 44 40ft 0kts
02-Feb-19 14:59 45.581748 -122.610676 44 40ft 0kts
02-Feb-19 15:00 45.581748 -122.610676 45 40ft 0kts
02-Feb-19 15:01 45.581748 -122.610677 45 40ft 0kts
02-Feb-19 15:02 45.581686 -122.610767 44 40ft 2kts
02-Feb-19 15:03 45.581215 -122.611075 350 40ft 2kts
02-Feb-19 15:04 45.580911 -122.610841 313 40ft 0kts
02-Feb-19 15:05 45.580911 -122.610841 313 40ft 0kts
02-Feb-19 15:06 45.580911 -122.610841 313 40ft 0kts
02-Feb-19 15:07 45.583159 -122.613406 22 40ft 21kts
02-Feb-19 15:08 45.586608 -122.606548 90 40ft 23kts
02-Feb-19 15:09 45.584838 -122.598262 119 40ft 25kts
02-Feb-19 15:10 45.580556 -122.587173 118 40ft 33kts
02-Feb-19 15:11 45.579825 -122.584955 77 40ft 0kts
02-Feb-19 15:12 45.581035 -122.585287 297 40ft 9kts
02-Feb-19 15:13 45.587120 -122.600842 298 41ft 139kts
02-Feb-19 15:14 45.606391 -122.654647 297 2034ft 152kts
02-Feb-19 15:15 45.625914 -122.710541 297 3576ft 160kts
02-Feb-19 15:16 45.650569 -122.762322 346 4875ft 180kts
02-Feb-19 15:17 45.707603 -122.735232 11 5760ft 260kts
02-Feb-19 15:18 45.780224 -122.718647 6 8692ft 274kts
02-Feb-19 15:19 45.862304 -122.704769 5 10222ft 339kts
02-Feb-19 15:20 45.957010 -122.689236 5 13180ft 352kts
02-Feb-19 15:21 46.056017 -122.672995 5 15651ft 367kts
02-Feb-19 15:22 46.157434 -122.680620 351 17869ft 381kts
02-Feb-19 15:23 46.264086 -122.701382 350 19689ft 402kts
02-Feb-19 15:24 46.377882 -122.714029 356 19672ft 392kts
02-Feb-19 15:25 46.486857 -122.718104 357 19445ft 391kts
02-Feb-19 15:26 46.594190 -122.721969 357 17539ft 380kts
02-Feb-19 15:27 46.697910 -122.725705 357 15757ft 369kts
02-Feb-19 15:28 46.789606 -122.716377 28 14769ft 318kts
02-Feb-19 15:29 46.858662 -122.639839 37 13483ft 308kts
02-Feb-19 15:30 46.924945 -122.564660 37 11664ft 297kts
02-Feb-19 15:31 47.002821 -122.529753 12 10342ft 292kts
02-Feb-19 15:32 47.078960 -122.498948 8 9671ft 284kts
02-Feb-19 15:33 47.155856 -122.484615 4 9674ft 283kts
02-Feb-19 15:34 47.228926 -122.472425 4 8848ft 250kts
02-Feb-19 15:35 47.297902 -122.461888 4 7713ft 250kts
02-Feb-19 15:36 47.366626 -122.453465 357 7411ft 250kts
02-Feb-19 15:37 47.435521 -122.453607 358 6518ft 247kts
02-Feb-19 15:38 47.500523 -122.453642 358 5653ft 241kts
02-Feb-19 15:39 47.567702 -122.454556 357 5657ft 242kts
02-Feb-19 15:40 47.634772 -122.455600 357 5651ft 239kts
02-Feb-19 15:41 47.701181 -122.456614 358 4911ft 237kts
02-Feb-19 15:42 47.739675 -122.400312 85 4119ft 216kts
02-Feb-19 15:43 47.722445 -122.328816 155 3658ft 188kts
02-Feb-19 15:44 47.674347 -122.316440 181 3666ft 165kts
02-Feb-19 15:45 47.629010 -122.316574 182 2773ft 161kts
02-Feb-19 15:46 47.586429 -122.316861 181 1967ft 152kts
02-Feb-19 15:47 47.544549 -122.317165 182 1553ft 151kts
02-Feb-19 15:48 47.502525 -122.317515 181 1149ft 150kts
02-Feb-19 15:49 47.461955 -122.317890 180 351ft 141kts
02-Feb-19 15:50 47.448002 -122.316733 150 380ft 0kts
02-Feb-19 15:51 47.447699 -122.316482 150 380ft 9kts
02-Feb-19 15:52 47.446296 -122.311236 115 395ft 16kts
02-Feb-19 15:53 47.442930 -122.306387 169 388ft 17kts
02-Feb-19 15:54 47.437444 -122.306169 130 368ft 21kts
02-Feb-19 15:55 47.436898 -122.303352 92 367ft 0kts

Navigation Log

Ident Type
Flight plan parsing failed, navigation log unavailable